PFKW

Kwethluk Airport

Airport
ICAO code
PFKW
IATA Code
KWT
Summary
ICAO Region
NAM
ICAO Territory
Location

, Alaska

Serving
Kwethluk
Elevation
25 ft
Coordinates
60° 47' 25" N , 161° 26' 37" W
Metar
PFKW 201656Z AUTO 01007KT 10SM CLR 12/11 A3001 RMK AO2 SLP161 T01220106

Runways

Designator Length Width Surface Rops
18/36 975 23 GRVL-G No/No

Airport map

Aerial View

SKYbrary Partners:

Safety knowledge contributed by: